Time;durP1;ratioP1;P1;durP2;ratioP2;P2;SDS_P1;SDS_P2;PMS_P1;PMS_P2;Temp;Humidity;BMP_temperature;BMP_pressure;BME280_temperature;BME280_humidity;BME280_pressure;Samples;Min_cycle;Max_cycle;Signal;HPM_P1;HPM_P2
2023/07/02 00:01:55;;;;;;;3.97;3.67;;;;;;;16.36;100.00;97512.31;5090158;28;20208;-75
2023/07/02 00:04:22;;;;;;;4.20;3.50;;;;;;;16.31;100.00;97512.31;5056053;28;20308;-74
2023/07/02 00:06:48;;;;;;;3.67;3.37;;;;;;;16.29;100.00;97514.44;5069680;28;20221;-74
2023/07/02 00:09:15;;;;;;;4.13;3.60;;;;;;;16.33;100.00;97526.25;5070240;28;20201;-74
2023/07/02 00:11:45;;;;;;;3.93;3.60;;;;;;;16.32;100.00;97513.09;5070114;28;20207;-74
2023/07/02 00:14:12;;;;;;;3.90;3.60;;;;;;;16.32;100.00;97519.28;5070040;28;20251;-75
2023/07/02 00:16:40;;;;;;;3.97;3.63;;;;;;;16.29;100.00;97521.69;5069628;28;20587;-74
2023/07/02 00:19:08;;;;;;;5.20;3.43;;;;;;;16.33;100.00;97517.41;5070195;28;20205;-74
2023/07/02 00:21:37;;;;;;;3.30;3.00;;;;;;;16.26;100.00;97516.84;5051448;28;20213;-74
2023/07/02 00:24:04;;;;;;;6.30;3.27;;;;;;;16.24;100.00;97521.69;5050088;28;20215;-74
2023/07/02 00:26:30;;;;;;;3.77;3.33;;;;;;;16.20;100.00;97524.09;5068968;28;20233;-75
2023/07/02 00:28:57;;;;;;;3.80;3.50;;;;;;;16.20;100.00;97515.25;5069697;28;20207;-74
2023/07/02 00:31:24;;;;;;;3.53;3.23;;;;;;;16.20;100.00;97537.50;5069685;28;20209;-75
2023/07/02 00:33:51;;;;;;;3.73;3.43;;;;;;;16.25;100.00;97528.66;5069640;28;20208;-75
2023/07/02 00:36:18;;;;;;;3.50;3.20;;;;;;;16.18;100.00;97520.88;5069110;28;20223;-75
2023/07/02 00:38:49;;;;;;;4.77;3.57;;;;;;;16.23;100.00;97525.44;5037566;28;20576;-75
2023/07/02 00:41:21;;;;;;;3.80;3.43;;;;;;;16.22;100.00;97526.50;5040168;28;20206;-75
2023/07/02 00:43:47;;;;;;;3.63;3.33;;;;;;;16.25;100.00;97525.97;5062650;28;20201;-75
2023/07/02 00:46:19;;;;;;;3.77;3.40;;;;;;;16.22;100.00;97524.63;5047183;28;20230;-74
2023/07/02 00:48:51;;;;;;;3.67;3.47;;;;;;;16.21;100.00;97527.59;5035883;28;20216;-74
2023/07/02 00:51:28;;;;;;;4.73;3.70;;;;;;;16.23;100.00;97520.88;5035946;28;20194;-74
2023/07/02 00:53:56;;;;;;;3.80;3.37;;;;;;;16.23;100.00;97523.56;5036073;28;20201;-74
2023/07/02 00:56:24;;;;;;;3.63;3.30;;;;;;;16.24;100.00;97525.16;5050027;28;20736;-74
2023/07/02 00:58:54;;;;;;;4.67;3.40;;;;;;;16.38;100.00;97526.25;5056768;28;20209;-74
2023/07/02 01:01:27;;;;;;;3.47;3.17;;;;;;;16.37;100.00;97521.16;5056123;28;20217;-74
2023/07/02 01:03:58;;;;;;;3.23;2.93;;;;;;;16.39;100.00;97525.19;5055684;28;20196;-74
2023/07/02 01:06:26;;;;;;;3.57;3.27;;;;;;;16.34;100.00;97532.41;5054870;28;20233;-74
2023/07/02 01:08:55;;;;;;;3.17;2.97;;;;;;;16.31;100.00;97530.25;5055826;28;20292;-74
2023/07/02 01:11:27;;;;;;;3.33;3.13;;;;;;;16.30;100.00;97529.47;5055495;28;20205;-74
2023/07/02 01:13:59;;;;;;;3.00;2.80;;;;;;;16.36;100.00;97528.41;5055785;28;20247;-74
2023/07/02 01:16:25;;;;;;;3.80;3.50;;;;;;;16.29;100.00;97532.44;5054528;28;20225;-74
2023/07/02 01:18:54;;;;;;;4.87;3.00;;;;;;;16.37;100.00;97531.91;5052816;28;20663;-75
2023/07/02 01:21:22;;;;;;;3.63;2.80;;;;;;;16.33;100.00;97533.50;5036495;28;20292;-75
2023/07/02 01:23:48;;;;;;;4.83;2.87;;;;;;;16.32;100.00;97529.19;5035609;28;20198;-75
2023/07/02 01:26:15;;;;;;;4.63;2.80;;;;;;;16.25;100.00;97532.16;5035436;28;20233;-75
2023/07/02 01:28:42;;;;;;;2.80;2.60;;;;;;;16.25;100.00;97537.53;5035499;28;20221;-75
2023/07/02 01:31:08;;;;;;;3.73;2.93;;;;;;;16.29;100.00;97543.16;5035451;28;20212;-75
2023/07/02 01:33:35;;;;;;;3.10;2.70;;;;;;;16.24;100.00;97543.94;5037184;28;20213;-75
2023/07/02 01:36:01;;;;;;;3.20;2.90;;;;;;;16.21;100.00;97546.34;5035293;28;20226;-75
2023/07/02 01:38:28;;;;;;;2.70;2.50;;;;;;;16.27;100.00;97543.41;5035350;28;20209;-75
2023/07/02 01:40:54;;;;;;;4.27;2.80;;;;;;;16.15;100.00;97540.19;5035166;28;20214;-75
2023/07/02 01:43:20;;;;;;;2.97;2.77;;;;;;;16.15;100.00;97539.38;5035255;28;20209;-75
2023/07/02 01:45:47;;;;;;;5.33;2.80;;;;;;;16.02;100.00;97537.22;5034789;28;20234;-75
2023/07/02 01:48:13;;;;;;;4.97;3.00;;;;;;;16.00;100.00;97533.97;5040222;28;20202;-75
2023/07/02 01:50:39;;;;;;;4.50;2.67;;;;;;;16.01;100.00;97530.25;5033846;28;20217;-75
2023/07/02 01:53:06;;;;;;;3.33;3.07;;;;;;;16.00;100.00;97532.13;5034796;28;20699;-75
2023/07/02 01:55:33;;;;;;;4.00;2.90;;;;;;;16.00;100.00;97525.94;5035017;28;20205;-75
2023/07/02 01:57:59;;;;;;;4.77;2.93;;;;;;;15.99;100.00;97530.50;5049466;28;20239;-75
2023/07/02 02:00:26;;;;;;;4.30;2.83;;;;;;;15.96;100.00;97531.03;5054835;28;20232;-75
2023/07/02 02:02:52;;;;;;;3.70;2.93;;;;;;;15.97;100.00;97531.84;5054772;28;20209;-75
2023/07/02 02:05:18;;;;;;;3.47;2.83;;;;;;;15.89;100.00;97537.72;5054440;28;20205;-75
2023/07/02 02:07:45;;;;;;;2.93;2.73;;;;;;;15.90;100.00;97540.16;5054284;28;20599;-75
2023/07/02 02:10:11;;;;;;;3.43;2.73;;;;;;;15.90;100.00;97540.16;5054645;28;20209;-75
2023/07/02 02:12:38;;;;;;;6.03;3.30;;;;;;;15.88;100.00;97539.59;5054344;28;20722;-75
2023/07/02 02:15:05;;;;;;;4.53;2.90;;;;;;;15.87;100.00;97545.25;5054209;28;20209;-75
2023/07/02 02:17:31;;;;;;;3.93;2.83;;;;;;;15.90;100.00;97550.88;5054385;28;20225;-75
2023/07/02 02:19:58;;;;;;;4.10;2.60;;;;;;;16.02;100.00;97550.63;5054945;28;20783;-75
2023/07/02 02:22:24;;;;;;;4.17;2.90;;;;;;;16.07;100.00;97559.50;5055248;28;20306;-75
2023/07/02 02:24:50;;;;;;;2.87;2.57;;;;;;;16.14;100.00;97557.34;5054526;28;20235;-75
2023/07/02 02:27:17;;;;;;;3.40;2.80;;;;;;;16.16;100.00;97551.72;5053735;28;20233;-75
2023/07/02 02:29:43;;;;;;;5.67;2.87;;;;;;;16.11;100.00;97549.03;5054219;28;20228;-75
2023/07/02 02:32:09;;;;;;;3.47;2.63;;;;;;;16.07;100.00;97546.09;5054818;28;20201;-75
2023/07/02 02:34:36;;;;;;;4.87;2.70;;;;;;;16.09;100.00;97540.44;5054248;28;20201;-75
2023/07/02 02:37:02;;;;;;;2.97;2.77;;;;;;;16.07;100.00;97540.72;5054145;28;20296;-75
2023/07/02 02:39:28;;;;;;;3.37;2.47;;;;;;;16.15;100.00;97542.84;5054092;28;20216;-75
2023/07/02 02:41:55;;;;;;;3.77;2.77;;;;;;;16.12;100.00;97540.72;5054036;28;20288;-75
2023/07/02 02:44:21;;;;;;;3.40;2.50;;;;;;;16.21;100.00;97541.81;5053939;28;20300;-75
2023/07/02 02:46:47;;;;;;;4.57;2.70;;;;;;;16.13;100.00;97542.34;5053847;28;20228;-76
2023/07/02 02:49:14;;;;;;;3.17;2.87;;;;;;;16.13;100.00;97544.19;5053960;28;20213;-75
2023/07/02 02:51:41;;;;;;;3.47;2.77;;;;;;;16.14;100.00;97551.97;5053904;28;20216;-75
2023/07/02 02:54:07;;;;;;;3.10;2.50;;;;;;;16.13;100.00;97550.38;5053794;28;20266;-76
2023/07/02 02:56:34;;;;;;;2.73;2.50;;;;;;;16.11;100.00;97544.47;5053693;28;20228;-76
2023/07/02 02:59:00;;;;;;;3.17;2.90;;;;;;;16.16;100.00;97554.41;5053784;28;20201;-76
2023/07/02 03:01:30;;;;;;;3.20;2.90;;;;;;;16.15;100.00;97553.59;5053532;28;20209;-76
2023/07/02 03:03:59;;;;;;;3.10;2.33;;;;;;;16.11;100.00;97557.88;5053767;28;20190;-76
2023/07/02 03:06:26;;;;;;;4.30;2.60;;;;;;;16.20;100.00;97564.31;5053186;28;20232;-76
2023/07/02 03:08:52;;;;;;;2.77;2.57;;;;;;;16.23;100.00;97566.47;5053235;28;20660;-76
2023/07/02 03:11:18;;;;;;;6.93;2.50;;;;;;;16.27;100.00;97562.19;5054108;28;20687;-76
2023/07/02 03:13:45;;;;;;;2.83;2.60;;;;;;;16.24;100.00;97573.44;5054277;28;20216;-76
2023/07/02 03:16:11;;;;;;;3.40;2.70;;;;;;;16.38;100.00;97579.09;5054045;28;20730;-76
2023/07/02 03:18:39;;;;;;;4.73;3.00;;;;;;;16.35;100.00;97580.44;5054523;28;20201;-77
2023/07/02 03:21:05;;;;;;;3.30;2.60;;;;;;;16.23;100.00;97585.25;5054152;28;20718;-76
2023/07/02 03:23:31;;;;;;;3.17;2.87;;;;;;;16.17;100.00;97589.00;5053623;28;20220;-75
2023/07/02 03:25:58;;;;;;;3.80;2.93;;;;;;;16.06;100.00;97587.34;5053731;28;20248;-76
2023/07/02 03:28:24;;;;;;;4.20;3.07;;;;;;;15.90;100.00;97593.75;5054426;28;20229;-75
2023/07/02 03:30:50;;;;;;;4.73;3.50;;;;;;;15.85;100.00;97595.59;5054024;28;20212;-75
2023/07/02 03:33:17;;;;;;;4.17;3.80;;;;;;;15.75;100.00;97593.69;5053538;28;20201;-75
2023/07/02 03:35:43;;;;;;;6.93;3.80;;;;;;;15.73;100.00;97593.16;5053376;28;20206;-75
2023/07/02 03:38:10;;;;;;;4.20;3.80;;;;;;;15.72;100.00;97606.81;5052996;28;20664;-75
2023/07/02 03:40:36;;;;;;;5.23;3.70;;;;;;;15.68;100.00;97608.41;5053259;28;20575;-75
2023/07/02 03:43:02;;;;;;;4.27;3.53;;;;;;;15.63;100.00;97609.19;5053313;28;20211;-75
2023/07/02 03:45:29;;;;;;;5.93;4.20;;;;;;;15.66;100.00;97608.69;5053250;28;20205;-74
2023/07/02 03:47:55;;;;;;;7.43;4.17;;;;;;;15.64;100.00;97613.50;5053165;28;20221;-75
2023/07/02 03:50:22;;;;;;;5.07;3.83;;;;;;;15.70;100.00;97615.13;5053315;28;20216;-75
2023/07/02 03:52:48;;;;;;;6.07;3.87;;;;;;;15.65;100.00;97616.97;5052986;28;20244;-74
2023/07/02 03:55:15;;;;;;;7.80;4.00;;;;;;;15.62;100.00;97618.31;5053329;28;20205;-74
2023/07/02 03:57:41;;;;;;;6.63;3.90;;;;;;;15.64;100.00;97626.06;5053162;28;20228;-74
2023/07/02 04:00:09;;;;;;;4.87;3.97;;;;;;;15.67;100.00;97641.63;5053210;28;20208;-74
2023/07/02 04:02:36;;;;;;;5.40;4.20;;;;;;;15.68;100.00;97632.53;5053233;28;20205;-74
2023/07/02 04:05:02;;;;;;;4.90;4.00;;;;;;;15.68;100.00;97633.34;5053209;28;20220;-74
2023/07/02 04:07:29;;;;;;;5.00;4.30;;;;;;;15.69;100.00;97644.88;5052835;28;20275;-74
2023/07/02 04:09:56;;;;;;;5.73;4.37;;;;;;;15.67;100.00;97641.63;5052867;28;20296;-75
2023/07/02 04:12:22;;;;;;;6.23;4.23;;;;;;;15.60;100.00;97644.53;5053451;28;20205;-75
2023/07/02 04:14:48;;;;;;;4.10;3.80;;;;;;;15.62;100.00;97644.28;5056797;28;20212;-75
2023/07/02 04:17:15;;;;;;;5.07;3.93;;;;;;;15.60;100.00;97647.22;5057242;28;20221;-74
2023/07/02 04:19:41;;;;;;;7.60;4.40;;;;;;;15.56;100.00;97651.50;5057253;28;20206;-74
2023/07/02 04:22:07;;;;;;;7.87;4.23;;;;;;;15.58;100.00;97644.00;5056790;28;20224;-74
2023/07/02 04:24:34;;;;;;;6.10;3.87;;;;;;;15.53;100.00;97648.53;5056311;28;20668;-74
2023/07/02 04:27:00;;;;;;;8.30;4.00;;;;;;;15.61;100.00;97648.84;5056167;28;20229;-74
2023/07/02 04:29:27;;;;;;;7.03;4.20;;;;;;;15.57;100.00;97647.78;5056571;28;20209;-74
2023/07/02 04:31:53;;;;;;;4.97;4.37;;;;;;;15.56;100.00;97650.69;5056476;28;20267;-74
2023/07/02 04:34:21;;;;;;;6.63;4.43;;;;;;;15.52;100.00;97653.06;5056558;28;20208;-74
2023/07/02 04:36:48;;;;;;;7.37;4.57;;;;;;;15.40;100.00;97649.81;5056308;28;20303;-74
2023/07/02 04:39:14;;;;;;;6.60;4.57;;;;;;;15.46;100.00;97635.38;5055917;28;20683;-74
2023/07/02 04:41:41;;;;;;;6.63;3.80;;;;;;;15.50;100.00;97644.50;5056299;28;20575;-74
2023/07/02 04:44:08;;;;;;;5.27;3.67;;;;;;;15.48;100.00;97653.88;5055896;28;20216;-75
2023/07/02 04:46:34;;;;;;;7.33;4.10;;;;;;;15.36;100.00;97672.81;5055611;28;20650;-75
2023/07/02 04:49:01;;;;;;;7.00;4.87;;;;;;;15.35;100.00;97673.88;5056182;28;20259;-74
2023/07/02 04:51:27;;;;;;;7.77;6.00;;;;;;;15.38;100.00;97670.66;5055850;28;20213;-74
2023/07/02 04:53:53;;;;;;;9.03;5.87;;;;;;;15.36;100.00;97667.47;5055770;28;20683;-74
2023/07/02 04:56:20;;;;;;;9.57;5.70;;;;;;;15.43;100.00;97662.66;5055636;28;20229;-74
2023/07/02 04:58:46;;;;;;;8.23;5.97;;;;;;;15.42;100.00;97658.38;5055754;28;20708;-74
2023/07/02 05:01:12;;;;;;;7.57;5.87;;;;;;;15.52;100.00;97666.47;5055644;28;20676;-74
2023/07/02 05:03:39;;;;;;;7.97;5.60;;;;;;;15.58;100.00;97678.03;5055681;28;20205;-74
2023/07/02 05:06:05;;;;;;;8.63;5.13;;;;;;;15.67;100.00;97671.94;5055221;28;20225;-74
2023/07/02 05:08:31;;;;;;;7.33;5.47;;;;;;;15.76;100.00;97673.06;5053810;28;20221;-74
2023/07/02 05:10:58;;;;;;;5.40;4.53;;;;;;;15.71;100.00;97667.66;5054334;28;20216;-74
2023/07/02 05:13:24;;;;;;;6.03;4.40;;;;;;;15.82;100.00;97676.53;5055508;28;20228;-75
2023/07/02 05:15:50;;;;;;;6.80;4.13;;;;;;;15.91;100.00;97683.84;5054902;28;20221;-75
2023/07/02 05:18:17;;;;;;;5.30;4.20;;;;;;;15.93;100.00;97688.94;5055715;28;20202;-75
2023/07/02 05:20:43;;;;;;;4.90;3.80;;;;;;;15.90;100.00;97682.22;5055706;28;20201;-75
2023/07/02 05:23:09;;;;;;;6.70;3.73;;;;;;;15.95;100.00;97684.94;5054848;28;20209;-75
2023/07/02 05:25:36;;;;;;;5.67;4.40;;;;;;;15.95;100.00;97687.59;5055004;28;20209;-75
2023/07/02 05:28:02;;;;;;;5.27;3.70;;;;;;;15.91;100.00;97702.59;5055386;28;20213;-75
2023/07/02 05:30:28;;;;;;;4.53;3.60;;;;;;;15.94;100.00;97698.59;5055382;28;20209;-75
2023/07/02 05:32:55;;;;;;;5.93;3.93;;;;;;;15.93;100.00;97710.38;5055333;28;20209;-75
2023/07/02 05:35:21;;;;;;;6.67;3.83;;;;;;;15.89;100.00;97707.44;5055230;28;20210;-76
2023/07/02 05:37:47;;;;;;;4.67;4.13;;;;;;;15.90;100.00;97709.03;5055172;28;20217;-76
2023/07/02 05:40:14;;;;;;;5.53;4.00;;;;;;;15.97;100.00;97706.91;5055066;28;20208;-75
2023/07/02 05:42:42;;;;;;;8.07;4.33;;;;;;;16.07;100.00;97711.53;5055085;28;20221;-75
2023/07/02 05:45:09;;;;;;;5.10;4.20;;;;;;;16.26;100.00;97705.44;5054808;28;20679;-76
2023/07/02 05:47:35;;;;;;;7.97;5.00;;;;;;;16.32;100.00;97709.75;5054565;28;20598;-76
2023/07/02 05:50:02;;;;;;;5.93;4.10;;;;;;;16.54;100.00;97707.69;5054683;28;20672;-76
2023/07/02 05:52:28;;;;;;;6.50;4.00;;;;;;;16.62;100.00;97709.88;5054637;28;20585;-75
2023/07/02 05:54:54;;;;;;;6.93;4.10;;;;;;;16.79;100.00;97720.34;5054636;28;20672;-75
2023/07/02 05:57:21;;;;;;;7.53;4.40;;;;;;;16.88;100.00;97722.22;5054595;28;20727;-75
2023/07/02 05:59:47;;;;;;;7.67;4.80;;;;;;;16.94;100.00;97726.56;5054656;28;20300;-75
2023/07/02 06:02:13;;;;;;;7.37;4.67;;;;;;;17.00;100.00;97732.72;5054806;28;20213;-75
2023/07/02 06:04:40;;;;;;;7.93;4.37;;;;;;;17.06;100.00;97720.94;5054744;28;20205;-76
2023/07/02 06:07:06;;;;;;;5.17;4.67;;;;;;;17.16;100.00;97727.13;5054519;28;20262;-76
2023/07/02 06:09:33;;;;;;;7.87;5.03;;;;;;;17.25;100.00;97732.75;5054577;28;20208;-76
2023/07/02 06:11:59;;;;;;;6.90;4.00;;;;;;;17.32;100.00;97730.59;5054664;28;20243;-76
2023/07/02 06:14:26;;;;;;;7.00;4.97;;;;;;;17.30;100.00;97732.75;5053947;28;20209;-75
2023/07/02 06:16:55;;;;;;;7.03;5.17;;;;;;;17.27;100.00;97735.94;5054206;28;20646;-75
2023/07/02 06:19:21;;;;;;;10.67;5.60;;;;;;;17.43;100.00;97737.59;5055038;28;20201;-76
2023/07/02 06:21:48;;;;;;;7.03;5.20;;;;;;;17.53;100.00;97737.59;5055231;28;20208;-76
2023/07/02 06:24:14;;;;;;;11.07;5.97;;;;;;;17.41;100.00;97745.94;5054821;28;20323;-76
2023/07/02 06:26:40;;;;;;;10.23;5.77;;;;;;;17.35;100.00;97740.78;5053954;28;20248;-77
2023/07/02 06:29:07;;;;;;;8.70;5.90;;;;;;;17.40;100.00;97740.81;5054248;28;20229;-77
2023/07/02 06:31:33;;;;;;;12.30;7.20;;;;;;;17.30;100.00;97741.63;5054161;28;20213;-77
2023/07/02 06:34:00;;;;;;;11.80;7.30;;;;;;;17.11;100.00;97745.91;5054890;28;20205;-77
2023/07/02 06:36:26;;;;;;;13.30;7.57;;;;;;;17.17;100.00;97739.47;5053310;28;20233;-77
2023/07/02 06:38:53;;;;;;;11.33;7.30;;;;;;;17.03;100.00;97734.88;5053761;28;20285;-77
2023/07/02 06:41:19;;;;;;;14.47;7.83;;;;;;;17.21;100.00;97753.97;5054687;28;20212;-77
2023/07/02 06:43:45;;;;;;;15.37;8.00;;;;;;;17.22;100.00;97750.22;5054015;28;20211;-77
2023/07/02 06:46:12;;;;;;;13.53;7.63;;;;;;;17.20;100.00;97749.66;5053513;28;20704;-76
2023/07/02 06:48:39;;;;;;;12.50;8.00;;;;;;;17.18;100.00;97751.81;5053947;28;20217;-77
2023/07/02 06:51:05;;;;;;;11.10;7.53;;;;;;;17.27;100.00;97747.50;5053900;28;20251;-76
2023/07/02 06:53:31;;;;;;;11.03;7.83;;;;;;;17.28;100.00;97759.88;5053504;28;20579;-76
2023/07/02 06:55:58;;;;;;;10.00;6.90;;;;;;;17.19;100.00;97752.63;5053675;28;20232;-77
2023/07/02 06:58:24;;;;;;;10.37;6.97;;;;;;;17.27;100.00;97750.22;5053810;28;20232;-76
2023/07/02 07:00:50;;;;;;;12.40;7.60;;;;;;;17.36;100.00;97759.34;5053728;28;20228;-76
2023/07/02 07:03:17;;;;;;;12.07;7.87;;;;;;;17.41;100.00;97755.91;5053613;28;20292;-76
2023/07/02 07:05:44;;;;;;;15.60;8.80;;;;;;;17.46;100.00;97753.19;5053492;28;20216;-76
2023/07/02 07:08:10;;;;;;;13.50;8.63;;;;;;;17.55;100.00;97756.97;5053534;28;20232;-76
2023/07/02 07:10:36;;;;;;;12.70;8.30;;;;;;;17.78;99.60;97754.50;5053698;28;20215;-76
2023/07/02 07:13:04;;;;;;;11.93;8.30;;;;;;;18.02;96.98;97746.63;5054176;28;20209;-76
2023/07/02 07:15:35;;;;;;;16.00;9.27;;;;;;;18.00;95.95;97748.81;5054116;28;20209;-75
2023/07/02 07:18:02;;;;;;;14.20;10.00;;;;;;;18.06;100.00;97751.19;5054325;28;20188;-76
2023/07/02 07:20:29;;;;;;;16.03;9.37;;;;;;;18.00;95.86;97754.97;5053942;28;20672;-76
2023/07/02 07:22:55;;;;;;;16.67;9.90;;;;;;;17.86;93.61;97759.31;5053391;28;20588;-76
2023/07/02 07:25:21;;;;;;;13.03;9.80;;;;;;;17.80;95.08;97743.47;5053085;28;20209;-76
2023/07/02 07:27:48;;;;;;;17.40;10.37;;;;;;;17.82;96.88;97747.50;5053218;28;20225;-76
2023/07/02 07:30:15;;;;;;;13.83;9.47;;;;;;;18.05;91.87;97751.50;5052949;28;20629;-77
2023/07/02 07:32:42;;;;;;;14.13;10.23;;;;;;;18.20;89.08;97752.25;5052987;28;20680;-76
2023/07/02 07:35:08;;;;;;;16.73;10.57;;;;;;;18.27;88.21;97755.44;5053357;28;20220;-76
2023/07/02 07:37:35;;;;;;;19.20;10.23;;;;;;;18.48;95.18;97751.63;5053251;28;20225;-76
2023/07/02 07:40:01;;;;;;;17.73;10.80;;;;;;;18.61;92.55;97767.19;5052810;28;20205;-75
2023/07/02 07:42:28;;;;;;;20.00;11.77;;;;;;;18.83;88.76;97756.00;5052322;28;20208;-76
2023/07/02 07:44:54;;;;;;;19.40;12.00;;;;;;;18.77;82.03;97768.69;5051519;28;20288;-76
2023/07/02 07:47:20;;;;;;;17.87;11.00;;;;;;;18.61;82.46;97769.06;5052559;28;20224;-76
2023/07/02 07:49:47;;;;;;;17.77;10.83;;;;;;;18.76;81.19;97772.47;5056933;28;20212;-76
2023/07/02 07:52:13;;;;;;;17.83;11.90;;;;;;;18.62;81.18;97771.47;5057004;28;20212;-76
2023/07/02 07:54:39;;;;;;;17.17;11.37;;;;;;;18.83;81.97;97764.88;5057063;28;20213;-76
2023/07/02 07:57:07;;;;;;;18.00;11.50;;;;;;;18.85;82.30;97773.50;5057007;28;20228;-77
2023/07/02 07:59:34;;;;;;;14.80;11.13;;;;;;;18.80;86.07;97765.44;5056360;28;20205;-76
2023/07/02 08:02:00;;;;;;;15.20;11.40;;;;;;;18.73;82.13;97764.94;5056691;28;20205;-75
2023/07/02 08:04:26;;;;;;;16.60;11.47;;;;;;;18.71;82.45;97763.59;5056992;28;20220;-76
2023/07/02 08:06:54;;;;;;;20.20;11.83;;;;;;;18.76;80.84;97764.41;5056135;28;20225;-76
2023/07/02 08:09:21;;;;;;;15.83;11.53;;;;;;;18.97;81.24;97759.69;5055909;28;20279;-76
2023/07/02 08:11:47;;;;;;;15.53;10.93;;;;;;;18.86;81.59;97758.94;5056478;28;20209;-76
2023/07/02 08:14:14;;;;;;;18.37;12.37;;;;;;;19.04;82.02;97754.78;5055337;28;20318;-76
2023/07/02 08:16:40;;;;;;;17.47;12.17;;;;;;;19.26;82.37;97752.50;5056518;28;20224;-76
2023/07/02 08:19:06;;;;;;;17.50;11.90;;;;;;;19.00;80.96;97753.75;5056863;28;20212;-76
2023/07/02 08:21:33;;;;;;;17.93;12.47;;;;;;;19.07;81.65;97763.13;5057426;28;20228;-75
2023/07/02 08:23:59;;;;;;;20.07;12.43;;;;;;;19.22;78.11;97757.66;5057177;28;20216;-76
2023/07/02 08:26:25;;;;;;;16.10;12.00;;;;;;;19.40;77.94;97765.06;5047852;28;20613;-76
2023/07/02 08:28:52;;;;;;;18.57;12.83;;;;;;;19.58;77.24;97769.75;5034765;28;20234;-76
2023/07/02 08:31:18;;;;;;;18.23;11.97;;;;;;;19.96;77.88;97762.66;5034912;28;20206;-75
2023/07/02 08:33:44;;;;;;;17.87;11.90;;;;;;;19.93;75.80;97765.13;5039551;28;20232;-76
2023/07/02 08:36:11;;;;;;;20.50;11.83;;;;;;;19.83;76.91;97765.22;5036223;28;20232;-76
2023/07/02 08:38:39;;;;;;;14.27;11.20;;;;;;;20.06;73.33;97769.84;5042876;28;20214;-76
2023/07/02 08:41:05;;;;;;;15.60;12.03;;;;;;;19.87;73.08;97764.38;5037774;28;20265;-76
2023/07/02 08:43:32;;;;;;;19.20;11.83;;;;;;;20.02;74.85;97760.72;5036494;28;20213;-76
2023/07/02 08:45:59;;;;;;;16.97;11.80;;;;;;;19.92;71.87;97760.81;5035496;28;20237;-76
2023/07/02 08:48:29;;;;;;;17.60;11.80;;;;;;;20.11;71.38;97767.94;5036248;28;20701;-76
2023/07/02 08:50:56;;;;;;;20.23;13.30;;;;;;;19.85;71.44;97763.06;5054810;28;20252;-76
2023/07/02 08:53:25;;;;;;;16.97;12.30;;;;;;;19.73;70.26;97762.63;5055660;28;20661;-76
2023/07/02 08:55:51;;;;;;;18.90;12.50;;;;;;;19.78;73.75;97771.47;5069697;28;20220;-75
2023/07/02 08:58:18;;;;;;;18.03;11.93;;;;;;;19.98;69.90;97759.69;5075328;28;20204;-76
2023/07/02 09:01:10;;;;;;;15.33;10.93;;;;;;;20.00;68.75;97765.59;5075934;28;20210;-76
2023/07/02 09:03:37;;;;;;;17.87;12.77;;;;;;;20.04;68.59;97759.34;5057918;28;20194;-76
2023/07/02 09:06:05;;;;;;;12.33;10.23;;;;;;;20.12;68.17;97760.66;5039073;28;20275;-76
2023/07/02 09:08:33;;;;;;;15.17;10.37;;;;;;;20.29;66.73;97759.09;5045553;28;20573;-76
2023/07/02 09:11:14;;;;;;;24.73;16.67;;;;;;;20.32;64.85;97755.00;5050030;28;20201;-76
2023/07/02 09:13:48;;;;;;;13.23;10.73;;;;;;;20.52;66.97;97752.84;5045573;28;20210;-76
2023/07/02 09:16:31;;;;;;;16.93;11.73;;;;;;;21.01;66.64;97749.78;5051137;28;20225;-76
2023/07/02 09:19:01;;;;;;;17.83;10.83;;;;;;;20.83;63.86;97762.16;5054266;28;20197;-76
2023/07/02 09:21:43;;;;;;;17.70;12.73;;;;;;;20.75;66.39;97764.72;5056066;28;20197;-76
2023/07/02 09:24:21;;;;;;;15.03;12.30;;;;;;;20.70;64.11;97762.09;5052302;28;20198;-76
2023/07/02 09:26:50;;;;;;;16.60;12.00;;;;;;;20.58;66.14;97754.38;5053042;28;20228;-76
2023/07/02 09:29:30;;;;;;;14.60;10.20;;;;;;;20.73;65.49;97766.91;5053683;28;20267;-76
2023/07/02 09:31:58;;;;;;;18.57;11.20;;;;;;;21.08;62.53;97759.16;5048885;28;20704;-76
2023/07/02 09:34:32;;;;;;;15.37;10.83;;;;;;;21.34;63.59;97767.69;5036940;28;20202;-75
2023/07/02 09:36:59;;;;;;;14.93;11.43;;;;;;;21.22;61.06;97764.63;5042751;28;20222;-76
2023/07/02 09:39:33;;;;;;;16.13;11.20;;;;;;;20.98;62.39;97761.19;5036855;28;20213;-76
2023/07/02 09:42:01;;;;;;;16.47;11.73;;;;;;;20.84;62.27;97768.38;5053924;28;20205;-76
2023/07/02 09:44:27;;;;;;;15.97;11.43;;;;;;;21.06;62.60;97755.94;5036537;28;20213;-76
2023/07/02 09:46:57;;;;;;;15.80;11.03;;;;;;;21.45;69.01;97755.59;5048040;28;20218;-76
2023/07/02 09:49:24;;;;;;;15.13;10.30;;;;;;;21.22;61.17;97759.19;5045447;28;20234;-76
2023/07/02 09:51:50;;;;;;;14.57;10.63;;;;;;;21.64;62.33;97750.94;5049657;28;20205;-76
2023/07/02 09:54:17;;;;;;;15.63;11.93;;;;;;;21.89;61.73;97745.13;5050665;28;20203;-76
2023/07/02 09:56:47;;;;;;;15.33;11.43;;;;;;;22.15;63.59;97741.63;5041441;28;20226;-76
2023/07/02 09:59:14;;;;;;;14.00;10.97;;;;;;;21.61;61.55;97755.03;5036356;28;20239;-76
2023/07/02 10:01:40;;;;;;;15.00;11.90;;;;;;;21.84;61.75;97740.59;5053820;28;20220;-76
2023/07/02 10:04:18;;;;;;;17.20;11.37;;;;;;;21.10;62.32;97754.25;5034933;28;20229;-76
2023/07/02 10:06:50;;;;;;;15.10;11.07;;;;;;;21.35;63.68;97747.66;5034066;28;20277;-76
2023/07/02 10:09:17;;;;;;;16.53;12.10;;;;;;;21.45;62.90;97742.06;5042015;28;20221;-76
2023/07/02 10:11:44;;;;;;;16.10;11.03;;;;;;;22.23;61.04;97742.81;5053731;28;20217;-76
2023/07/02 10:14:11;;;;;;;15.33;11.77;;;;;;;21.74;63.26;97745.38;5049495;28;20205;-76
2023/07/02 10:16:54;;;;;;;16.97;11.33;;;;;;;21.23;63.97;97742.69;5048688;28;20226;-75
2023/07/02 10:19:21;;;;;;;14.77;11.37;;;;;;;21.20;62.92;97737.06;5057299;28;20197;-75
2023/07/02 10:22:00;;;;;;;15.47;11.67;;;;;;;21.42;62.64;97750.75;5036651;28;20216;-75
2023/07/02 10:24:27;;;;;;;17.07;11.77;;;;;;;21.47;62.55;97745.28;5034331;28;20206;-76
2023/07/02 10:26:57;;;;;;;14.37;11.73;;;;;;;21.80;61.11;97746.91;5043002;28;20268;-76
2023/07/02 10:29:24;;;;;;;14.63;11.13;;;;;;;21.72;60.95;97747.59;5043198;28;20248;-77
2023/07/02 10:31:52;;;;;;;17.13;11.73;;;;;;;21.70;61.09;97741.69;5034913;28;20213;-76
2023/07/02 10:34:37;;;;;;;16.80;11.40;;;;;;;22.08;63.37;97735.81;5054306;28;20204;-75
2023/07/02 10:37:04;;;;;;;14.30;11.33;;;;;;;22.29;60.75;97742.44;5040293;28;20221;-75
2023/07/02 10:39:32;;;;;;;16.37;11.57;;;;;;;22.44;59.80;97734.00;5041007;28;20201;-75
2023/07/02 10:42:08;;;;;;;14.23;11.80;;;;;;;22.10;61.27;97738.19;5048862;28;20201;-75
2023/07/02 10:44:35;;;;;;;18.27;11.73;;;;;;;21.88;60.59;97736.19;5051922;28;20664;-76
2023/07/02 10:47:04;;;;;;;14.93;11.40;;;;;;;22.26;61.49;97740.34;5052731;28;20560;-76
2023/07/02 10:49:32;;;;;;;18.67;11.67;;;;;;;22.13;60.85;97737.63;5050497;28;20224;-76
2023/07/02 10:52:03;;;;;;;14.07;11.90;;;;;;;22.38;60.95;97739.84;5038424;28;20208;-75
2023/07/02 10:54:43;;;;;;;15.83;12.30;;;;;;;22.35;58.71;97738.53;5052806;28;20718;-75
2023/07/02 10:57:11;;;;;;;14.10;11.50;;;;;;;22.16;56.85;97737.03;5038612;28;20610;-76
2023/07/02 10:59:38;;;;;;;14.73;11.40;;;;;;;22.51;59.17;97734.44;5037338;28;20642;-75
2023/07/02 11:02:04;;;;;;;17.77;14.67;;;;;;;22.47;55.71;97728.00;5048250;28;20207;-75
2023/07/02 11:04:31;;;;;;;16.27;12.13;;;;;;;22.37;57.01;97717.34;5050779;28;20225;-75
2023/07/02 11:06:58;;;;;;;14.98;11.98;;;;;;;22.29;56.08;97736.22;5049851;28;20324;-76
2023/07/02 11:09:24;;;;;;;16.60;12.10;;;;;;;22.03;58.53;97733.19;5051487;28;20224;-75
2023/07/02 11:11:55;;;;;;;14.70;12.07;;;;;;;22.08;58.84;97740.44;5051621;28;20201;-75
2023/07/02 11:14:33;;;;;;;14.97;11.50;;;;;;;21.93;57.70;97738.78;5046956;28;20204;-75
2023/07/02 11:17:02;;;;;;;14.67;10.97;;;;;;;21.77;56.44;97733.97;5048430;28;20220;-75
2023/07/02 11:19:28;;;;;;;13.90;11.40;;;;;;;21.87;55.09;97731.88;5049963;28;20205;-76
2023/07/02 11:21:57;;;;;;;14.23;11.70;;;;;;;22.14;56.79;97742.72;5048674;28;20208;-76
2023/07/02 11:24:34;;;;;;;14.10;11.17;;;;;;;22.64;55.83;97730.09;5051226;28;20197;-76